Terminal Aerodrome Forecast
Issued by NWS

Home | Current Version | Previous Version | Text Only | Print | Product List | Glossary On
Versions: 1 2 3 4 5 6 7 8 9 10 11 12 13 14 15 16 17 18 19 20
000
FTUS41 KGYX 010520
TAFRKD
TAF
KRKD 010520Z 0106/0206 30005KT P6SM FEW045 SCT050
      TEMPO 0108/0112 3SM BR SCT002
     FM011800 19008KT P6SM SKC
     FM020000 25004KT P6SM SCT100
      TEMPO 0204/0206 2SM BR
      AMD LTD TO CLD VIS AND WIND=

USA.gov is the U.S. government's official web portal to all federal, state and local government web resources and services.